Time;durP1;ratioP1;P1;durP2;ratioP2;P2;SDS_P1;SDS_P2;PMS_P1;PMS_P2;Temp;Humidity;BMP_temperature;BMP_pressure;BME280_temperature;BME280_humidity;BME280_pressure;Samples;Min_cycle;Max_cycle;Signal;HPM_P1;HPM_P2
2022/10/24 00:00:55;;;;;;;;;;;18.80;72.50;;;;;;5094202;28;19919;-82
2022/10/24 00:03:21;;;;;;;;;;;18.80;72.50;;;;;;5084107;27;19973;-81
2022/10/24 00:05:47;;;;;;;;;;;18.80;72.50;;;;;;5115677;27;20383;-84
2022/10/24 00:08:14;;;;;;;;;;;18.80;72.50;;;;;;5111596;28;19911;-82
2022/10/24 00:10:41;;;;;;;;;;;18.80;72.50;;;;;;5077200;28;20061;-82
2022/10/24 00:13:07;;;;;;;;;;;18.80;72.50;;;;;;5091918;27;21075;-83
2022/10/24 00:15:32;;;;;;;;;;;18.80;72.50;;;;;;5103937;28;19916;-83
2022/10/24 00:17:58;;;;;;;;;;;18.70;72.50;;;;;;5112059;28;19961;-83
2022/10/24 00:20:23;;;;;;;;;;;18.70;72.40;;;;;;5093710;28;19915;-82
2022/10/24 00:22:49;;;;;;;;;;;18.70;72.50;;;;;;5096746;28;19912;-83
2022/10/24 00:25:15;;;;;;;;;;;18.70;72.50;;;;;;5113533;28;19916;-83
2022/10/24 00:27:40;;;;;;;;;;;18.70;72.50;;;;;;5099605;27;20337;-83
2022/10/24 00:30:06;;;;;;;;;;;18.60;72.40;;;;;;5093217;28;20407;-82
2022/10/24 00:32:32;;;;;;;;;;;18.70;72.50;;;;;;5101183;28;20559;-81
2022/10/24 00:34:57;;;;;;;;;;;18.70;72.50;;;;;;5086290;28;19916;-83
2022/10/24 00:37:23;;;;;;;;;;;18.70;72.50;;;;;;5083458;28;19923;-83
2022/10/24 00:39:49;;;;;;;;;;;18.60;72.50;;;;;;5095471;28;19927;-83
2022/10/24 00:42:14;;;;;;;;;;;18.60;72.50;;;;;;5110147;28;20010;-82
2022/10/24 00:44:41;;;;;;;;;;;18.60;72.60;;;;;;5094625;28;20441;-83
2022/10/24 00:47:09;;;;;;;;;;;18.60;72.50;;;;;;5105784;27;19912;-82
2022/10/24 00:49:35;;;;;;;;;;;18.60;72.50;;;;;;5081838;28;19922;-82
2022/10/24 00:52:05;;;;;;;;;;;18.50;72.40;;;;;;5108111;28;19916;-84
2022/10/24 00:54:32;;;;;;;;;;;18.60;72.50;;;;;;5107447;28;19908;-82
2022/10/24 00:57:06;;;;;;;;;;;18.50;72.50;;;;;;5098569;27;19912;-83
2022/10/24 00:59:33;;;;;;;;;;;18.50;72.50;;;;;;5104112;28;19915;-82
2022/10/24 01:01:59;;;;;;;;;;;18.50;72.50;;;;;;5106587;27;19929;-82
2022/10/24 01:04:24;;;;;;;;;;;18.50;72.40;;;;;;5099078;27;19920;-82
2022/10/24 01:06:58;;;;;;;;;;;18.50;72.50;;;;;;5096824;28;19916;-83
2022/10/24 01:09:30;;;;;;;;;;;18.50;72.50;;;;;;5108292;27;19961;-82
2022/10/24 01:11:59;;;;;;;;;;;18.40;72.40;;;;;;5106079;28;19912;-81
2022/10/24 01:14:30;;;;;;;;;;;18.40;72.50;;;;;;5116601;27;19912;-82
2022/10/24 01:16:56;;;;;;;;;;;18.40;72.50;;;;;;5110506;28;20352;-82
2022/10/24 01:19:33;;;;;;;;;;;18.40;72.40;;;;;;5106892;28;19957;-82
2022/10/24 01:22:04;;;;;;;;;;;18.40;72.40;;;;;;5108218;28;19915;-82
2022/10/24 01:24:39;;;;;;;;;;;18.30;72.40;;;;;;5107815;28;19969;-82
2022/10/24 01:27:09;;;;;;;;;;;18.30;72.40;;;;;;5111392;28;19920;-82
2022/10/24 01:29:38;;;;;;;;;;;18.30;72.40;;;;;;5113466;28;19912;-83
2022/10/24 01:32:04;;;;;;;;;;;18.30;72.40;;;;;;5116026;27;19912;-82
2022/10/24 01:34:35;;;;;;;;;;;18.30;72.40;;;;;;5109476;28;19912;-82
2022/10/24 01:37:09;;;;;;;;;;;18.30;73.10;;;;;;5103699;27;20368;-83
2022/10/24 01:39:41;;;;;;;;;;;18.30;72.40;;;;;;5106469;27;19920;-82
2022/10/24 01:42:08;;;;;;;;;;;18.20;72.40;;;;;;5107447;28;19912;-82
2022/10/24 01:44:39;;;;;;;;;;;18.20;72.40;;;;;;5099063;28;19922;-82
2022/10/24 01:47:08;;;;;;;;;;;18.20;72.40;;;;;;5109723;28;19911;-82
2022/10/24 01:49:35;;;;;;;;;;;18.20;72.40;;;;;;5099170;28;20348;-82
2022/10/24 01:52:02;;;;;;;;;;;18.20;72.40;;;;;;5110092;28;19911;-82
2022/10/24 01:54:29;;;;;;;;;;;18.20;72.40;;;;;;5088311;28;19919;-82
2022/10/24 01:56:55;;;;;;;;;;;18.20;72.50;;;;;;5107366;28;19957;-82
2022/10/24 01:59:27;;;;;;;;;;;18.20;72.50;;;;;;5102107;28;20646;-82
2022/10/24 02:01:54;;;;;;;;;;;18.10;73.00;;;;;;5116160;27;19918;-82
2022/10/24 02:04:20;;;;;;;;;;;18.10;72.40;;;;;;5104041;28;19967;-82
2022/10/24 02:06:47;;;;;;;;;;;18.10;72.40;;;;;;5095199;28;19923;-82
2022/10/24 02:09:15;;;;;;;;;;;18.10;72.40;;;;;;5112515;27;20274;-81
2022/10/24 02:11:41;;;;;;;;;;;18.10;72.40;;;;;;5093376;28;20394;-82
2022/10/24 02:14:16;;;;;;;;;;;18.10;72.40;;;;;;5113456;27;19947;-83
2022/10/24 02:16:43;;;;;;;;;;;18.00;72.40;;;;;;5108395;28;19915;-82
2022/10/24 02:19:08;;;;;;;;;;;18.00;72.40;;;;;;5112773;27;19916;-83
2022/10/24 02:21:34;;;;;;;;;;;18.00;72.40;;;;;;5087710;28;19916;-82
2022/10/24 02:24:18;;;;;;;;;;;18.00;72.40;;;;;;5099260;28;19916;-82
2022/10/24 02:26:51;;;;;;;;;;;18.00;72.40;;;;;;5105478;28;19926;-82
2022/10/24 02:29:22;;;;;;;;;;;18.00;72.50;;;;;;5107229;28;20382;-82
2022/10/24 02:31:51;;;;;;;;;;;18.00;72.40;;;;;;5105865;28;19997;-81
2022/10/24 02:34:17;;;;;;;;;;;18.00;72.40;;;;;;5095954;28;19931;-82
2022/10/24 02:36:45;;;;;;;;;;;17.90;72.40;;;;;;5104896;28;19919;-82
2022/10/24 02:39:11;;;;;;;;;;;17.90;72.40;;;;;;5108035;28;19908;-82
2022/10/24 02:41:39;;;;;;;;;;;17.90;72.40;;;;;;5105909;28;19989;-82
2022/10/24 02:44:04;;;;;;;;;;;17.90;72.40;;;;;;5103848;28;19951;-82
2022/10/24 02:46:31;;;;;;;;;;;17.90;72.40;;;;;;5107864;28;20004;-82
2022/10/24 02:48:58;;;;;;;;;;;17.90;72.40;;;;;;5107122;28;20045;-82
2022/10/24 02:51:26;;;;;;;;;;;17.90;72.40;;;;;;5117878;28;19959;-82
2022/10/24 02:53:52;;;;;;;;;;;17.80;72.30;;;;;;5105339;28;20008;-82
2022/10/24 02:56:18;;;;;;;;;;;17.80;72.70;;;;;;5115205;28;20383;-82
2022/10/24 02:58:43;;;;;;;;;;;17.90;72.40;;;;;;5090246;28;19966;-82
2022/10/24 03:01:09;;;;;;;;;;;17.80;72.40;;;;;;5106213;28;19958;-83
2022/10/24 03:03:35;;;;;;;;;;;17.80;72.40;;;;;;5095839;28;19962;-82
2022/10/24 03:06:00;;;;;;;;;;;17.80;72.40;;;;;;5099476;28;19919;-82
2022/10/24 03:08:26;;;;;;;;;;;17.80;72.40;;;;;;5094840;28;19919;-82
2022/10/24 03:10:52;;;;;;;;;;;17.80;72.40;;;;;;5107386;28;19922;-83
2022/10/24 03:13:17;;;;;;;;;;;17.70;72.40;;;;;;5107405;28;20360;-81
2022/10/24 03:15:43;;;;;;;;;;;17.70;72.40;;;;;;5095946;28;19923;-81
2022/10/24 03:18:08;;;;;;;;;;;17.80;72.40;;;;;;5088926;28;19916;-82
2022/10/24 03:20:34;;;;;;;;;;;17.70;72.40;;;;;;5103511;28;20269;-80
2022/10/24 03:23:00;;;;;;;;;;;17.70;72.40;;;;;;5086205;28;19916;-82
2022/10/24 03:25:25;;;;;;;;;;;17.70;72.40;;;;;;5094588;28;19916;-83
2022/10/24 03:27:51;;;;;;;;;;;17.70;72.40;;;;;;5109349;28;19931;-82
2022/10/24 03:30:17;;;;;;;;;;;17.70;72.40;;;;;;5081993;28;19923;-81
2022/10/24 03:32:42;;;;;;;;;;;17.70;72.40;;;;;;5078641;28;19917;-82
2022/10/24 03:35:08;;;;;;;;;;;17.60;72.40;;;;;;5085401;28;21769;-82
2022/10/24 03:37:34;;;;;;;;;;;17.70;72.40;;;;;;5111411;28;19916;-81
2022/10/24 03:39:59;;;;;;;;;;;17.60;72.40;;;;;;5107580;28;20455;-81
2022/10/24 03:42:25;;;;;;;;;;;17.60;72.40;;;;;;5091465;28;20307;-82
2022/10/24 03:44:50;;;;;;;;;;;17.60;72.40;;;;;;5089610;28;19928;-81
2022/10/24 03:47:16;;;;;;;;;;;17.60;72.40;;;;;;5076340;28;19912;-82
2022/10/24 03:49:42;;;;;;;;;;;17.60;72.40;;;;;;5119262;27;19923;-82
2022/10/24 03:52:07;;;;;;;;;;;17.60;72.40;;;;;;5114599;27;19915;-82
2022/10/24 03:54:34;;;;;;;;;;;17.60;72.40;;;;;;5093829;28;19923;-82
2022/10/24 03:57:00;;;;;;;;;;;17.60;72.40;;;;;;5105849;28;19922;-82
2022/10/24 03:59:25;;;;;;;;;;;17.50;72.40;;;;;;5099038;28;19916;-82
2022/10/24 04:01:51;;;;;;;;;;;17.50;72.40;;;;;;5093697;28;20316;-81
2022/10/24 04:04:16;;;;;;;;;;;17.50;72.40;;;;;;5105928;27;19923;-82
2022/10/24 04:06:42;;;;;;;;;;;17.50;72.40;;;;;;5095342;27;19916;-82
2022/10/24 04:09:08;;;;;;;;;;;17.50;72.40;;;;;;5114153;27;19912;-82
2022/10/24 04:11:34;;;;;;;;;;;17.50;72.40;;;;;;5109673;27;19926;-81
2022/10/24 04:13:59;;;;;;;;;;;17.50;72.40;;;;;;5108097;28;19919;-82
2022/10/24 04:16:26;;;;;;;;;;;17.50;72.40;;;;;;5089092;28;19915;-82
2022/10/24 04:18:51;;;;;;;;;;;17.50;72.40;;;;;;5102995;28;19919;-82
2022/10/24 04:21:17;;;;;;;;;;;17.50;72.40;;;;;;5101329;28;19912;-81
2022/10/24 04:23:43;;;;;;;;;;;17.50;72.50;;;;;;5105364;28;20545;-82
2022/10/24 04:26:10;;;;;;;;;;;17.50;72.40;;;;;;5096071;27;19930;-81
2022/10/24 04:28:35;;;;;;;;;;;17.50;72.40;;;;;;5099192;27;19933;-83
2022/10/24 04:31:01;;;;;;;;;;;17.50;72.50;;;;;;5102481;28;20265;-82
2022/10/24 04:33:26;;;;;;;;;;;17.40;72.40;;;;;;5101627;28;20368;-82
2022/10/24 04:35:52;;;;;;;;;;;17.40;72.40;;;;;;5105361;28;19951;-82
2022/10/24 04:38:18;;;;;;;;;;;17.40;72.40;;;;;;5107186;28;19982;-82
2022/10/24 04:40:47;;;;;;;;;;;17.40;72.40;;;;;;5102607;28;20018;-81
2022/10/24 04:43:12;;;;;;;;;;;17.40;72.40;;;;;;5089335;28;19961;-83
2022/10/24 04:45:38;;;;;;;;;;;17.40;72.40;;;;;;5106543;27;19924;-82
2022/10/24 04:48:04;;;;;;;;;;;17.40;72.40;;;;;;5105665;27;19919;-82
2022/10/24 04:50:29;;;;;;;;;;;17.40;72.40;;;;;;5102683;28;20018;-82
2022/10/24 04:52:55;;;;;;;;;;;17.40;72.40;;;;;;5103620;28;19926;-81
2022/10/24 04:55:21;;;;;;;;;;;17.40;72.50;;;;;;5106677;28;19920;-80
2022/10/24 04:57:47;;;;;;;;;;;17.40;72.40;;;;;;5105657;28;20368;-80
2022/10/24 05:00:12;;;;;;;;;;;17.40;72.40;;;;;;5088937;28;19931;-81
2022/10/24 05:02:38;;;;;;;;;;;17.40;72.50;;;;;;5092334;28;19912;-80
2022/10/24 05:05:04;;;;;;;;;;;17.30;72.40;;;;;;5106065;28;19923;-81
2022/10/24 05:07:30;;;;;;;;;;;17.40;72.50;;;;;;5107303;28;19912;-81
2022/10/24 05:09:55;;;;;;;;;;;17.30;72.40;;;;;;5106983;28;19966;-80
2022/10/24 05:12:21;;;;;;;;;;;17.30;72.40;;;;;;5104315;27;19959;-80
2022/10/24 05:14:46;;;;;;;;;;;17.30;72.40;;;;;;5097192;28;19944;-80
2022/10/24 05:17:13;;;;;;;;;;;17.30;73.10;;;;;;5092151;28;20308;-81
2022/10/24 05:19:39;;;;;;;;;;;17.30;72.40;;;;;;5100559;27;19948;-80
2022/10/24 05:22:04;;;;;;;;;;;17.30;72.50;;;;;;5106549;28;20362;-80
2022/10/24 05:24:30;;;;;;;;;;;17.30;72.40;;;;;;5107330;28;20008;-80
2022/10/24 05:26:55;;;;;;;;;;;17.30;72.50;;;;;;5091380;28;19955;-80
2022/10/24 05:29:21;;;;;;;;;;;17.30;72.50;;;;;;5094652;28;20387;-80
2022/10/24 05:31:47;;;;;;;;;;;17.30;72.40;;;;;;5113053;27;19968;-80
2022/10/24 05:34:12;;;;;;;;;;;17.30;72.40;;;;;;5105823;28;19920;-80
2022/10/24 05:36:38;;;;;;;;;;;17.30;72.50;;;;;;5104239;27;20018;-80
2022/10/24 05:39:04;;;;;;;;;;;17.30;72.40;;;;;;5096820;28;20447;-81
2022/10/24 05:41:30;;;;;;;;;;;17.30;72.50;;;;;;5107345;28;19920;-81
2022/10/24 05:43:55;;;;;;;;;;;17.30;72.50;;;;;;5106796;28;20039;-82
2022/10/24 05:46:21;;;;;;;;;;;17.30;72.50;;;;;;5095815;28;20272;-83
2022/10/24 05:48:46;;;;;;;;;;;17.30;72.50;;;;;;5112537;27;19955;-82
2022/10/24 05:51:12;;;;;;;;;;;17.30;72.50;;;;;;5110747;27;20343;-82
2022/10/24 05:53:38;;;;;;;;;;;17.20;72.40;;;;;;5105320;27;19916;-82
2022/10/24 05:56:04;;;;;;;;;;;17.20;72.40;;;;;;5116152;27;19908;-81
2022/10/24 05:58:30;;;;;;;;;;;17.30;72.50;;;;;;5102293;28;19951;-82
2022/10/24 06:00:56;;;;;;;;;;;17.20;72.40;;;;;;5103849;28;19967;-82
2022/10/24 06:03:22;;;;;;;;;;;17.20;72.40;;;;;;5082075;28;19924;-82
2022/10/24 06:05:48;;;;;;;;;;;17.20;72.50;;;;;;5109570;28;20419;-82
2022/10/24 06:08:13;;;;;;;;;;;17.20;72.50;;;;;;5101669;27;19962;-82
2022/10/24 06:10:39;;;;;;;;;;;17.20;72.40;;;;;;5108051;28;19920;-82
2022/10/24 06:13:04;;;;;;;;;;;17.20;72.40;;;;;;5106779;28;19912;-83
2022/10/24 06:15:30;;;;;;;;;;;17.20;72.50;;;;;;5084155;28;20425;-82
2022/10/24 06:17:56;;;;;;;;;;;17.20;72.40;;;;;;5105189;28;19912;-83
2022/10/24 06:20:21;;;;;;;;;;;17.20;72.40;;;;;;5090294;27;19912;-82
2022/10/24 06:22:47;;;;;;;;;;;17.20;72.40;;;;;;5092547;28;19924;-82
2022/10/24 06:25:13;;;;;;;;;;;17.20;72.50;;;;;;5108786;28;19920;-82
2022/10/24 06:27:39;;;;;;;;;;;17.20;72.50;;;;;;5101624;28;19935;-82
2022/10/24 06:30:05;;;;;;;;;;;17.20;72.50;;;;;;5089369;28;19912;-82
2022/10/24 06:32:31;;;;;;;;;;;17.20;72.50;;;;;;5072867;28;19916;-82
2022/10/24 06:34:56;;;;;;;;;;;17.20;72.50;;;;;;5090088;28;19996;-82
2022/10/24 06:37:22;;;;;;;;;;;17.20;72.50;;;;;;5109921;28;20455;-82
2022/10/24 06:39:48;;;;;;;;;;;17.10;72.40;;;;;;5075176;28;19911;-83
2022/10/24 06:42:13;;;;;;;;;;;17.20;72.50;;;;;;5104325;28;19916;-82
2022/10/24 06:44:40;;;;;;;;;;;17.20;72.50;;;;;;5085427;28;20367;-82
2022/10/24 06:47:06;;;;;;;;;;;17.20;72.50;;;;;;5109529;28;19927;-82
2022/10/24 06:49:31;;;;;;;;;;;17.20;72.50;;;;;;5109463;28;19915;-83
2022/10/24 06:51:57;;;;;;;;;;;17.20;72.50;;;;;;5091965;28;19916;-82
2022/10/24 06:54:22;;;;;;;;;;;17.20;72.50;;;;;;5092460;28;19923;-83
2022/10/24 06:56:48;;;;;;;;;;;17.10;72.50;;;;;;5106623;28;20349;-82
2022/10/24 06:59:15;;;;;;;;;;;17.10;72.50;;;;;;5091956;28;19923;-82
2022/10/24 07:01:41;;;;;;;;;;;17.20;72.50;;;;;;5105148;28;19912;-81
2022/10/24 07:04:07;;;;;;;;;;;17.20;72.80;;;;;;5087652;28;20438;-82
2022/10/24 07:06:33;;;;;;;;;;;17.10;72.50;;;;;;5090799;28;19911;-82
2022/10/24 07:08:59;;;;;;;;;;;17.10;72.50;;;;;;5089710;28;20053;-82
2022/10/24 07:11:25;;;;;;;;;;;17.10;72.50;;;;;;5087980;28;20011;-82
2022/10/24 07:13:51;;;;;;;;;;;17.10;72.50;;;;;;5090157;28;20060;-82
2022/10/24 07:16:16;;;;;;;;;;;17.10;72.40;;;;;;5105863;28;19908;-81
2022/10/24 07:18:42;;;;;;;;;;;17.10;72.50;;;;;;5107159;28;19919;-81
2022/10/24 07:21:13;;;;;;;;;;;17.20;72.60;;;;;;5107123;28;19908;-82
2022/10/24 07:23:39;;;;;;;;;;;17.20;72.50;;;;;;5095576;28;19947;-82
2022/10/24 07:26:06;;;;;;;;;;;17.20;72.60;;;;;;5096095;28;20544;-82
2022/10/24 07:28:32;;;;;;;;;;;17.10;72.50;;;;;;5110425;28;19970;-82
2022/10/24 07:30:57;;;;;;;;;;;17.20;72.60;;;;;;5110792;28;19911;-83
2022/10/24 07:33:23;;;;;;;;;;;17.20;72.60;;;;;;5110779;28;19912;-82
2022/10/24 07:35:49;;;;;;;;;;;17.20;72.60;;;;;;5093410;28;19912;-81
2022/10/24 07:38:14;;;;;;;;;;;17.20;72.60;;;;;;5112769;28;20480;-82
2022/10/24 07:40:40;;;;;;;;;;;17.20;72.60;;;;;;5084196;28;20002;-82
2022/10/24 07:43:05;;;;;;;;;;;17.20;72.60;;;;;;5079148;28;19946;-82
2022/10/24 07:45:31;;;;;;;;;;;17.20;72.60;;;;;;5093558;28;19918;-83
2022/10/24 07:47:58;;;;;;;;;;;17.20;72.60;;;;;;5109108;28;19965;-82
2022/10/24 07:50:23;;;;;;;;;;;17.20;72.60;;;;;;5103388;28;19916;-82
2022/10/24 07:52:49;;;;;;;;;;;17.20;72.60;;;;;;5093546;28;20291;-80
2022/10/24 07:55:15;;;;;;;;;;;17.20;72.60;;;;;;5091488;28;20412;-81
2022/10/24 07:57:40;;;;;;;;;;;17.20;72.60;;;;;;5073450;28;19920;-81
2022/10/24 08:00:06;;;;;;;;;;;17.20;72.60;;;;;;5080943;28;19976;-80
2022/10/24 08:02:38;;;;;;;;;;;17.20;72.60;;;;;;5110995;28;20331;-82
2022/10/24 08:05:03;;;;;;;;;;;17.20;72.60;;;;;;5090838;28;19924;-82
2022/10/24 08:07:29;;;;;;;;;;;17.20;72.60;;;;;;5092510;28;19965;-81
2022/10/24 08:09:55;;;;;;;;;;;17.20;72.60;;;;;;5105294;28;19951;-81
2022/10/24 08:12:20;;;;;;;;;;;17.20;72.60;;;;;;5109946;28;20013;-81
2022/10/24 08:14:46;;;;;;;;;;;17.20;72.60;;;;;;5100597;28;19935;-82
2022/10/24 08:17:11;;;;;;;;;;;17.30;72.60;;;;;;5092748;28;20006;-81
2022/10/24 08:19:40;;;;;;;;;;;17.30;72.60;;;;;;5100761;28;20405;-82
2022/10/24 08:22:06;;;;;;;;;;;17.30;72.60;;;;;;5100251;28;19919;-82
2022/10/24 08:24:32;;;;;;;;;;;17.30;72.70;;;;;;5110580;28;20379;-82
2022/10/24 08:26:58;;;;;;;;;;;17.30;72.60;;;;;;5095821;28;19931;-82
2022/10/24 08:29:24;;;;;;;;;;;17.30;72.70;;;;;;5112791;27;20368;-83
2022/10/24 08:31:50;;;;;;;;;;;17.30;72.70;;;;;;5112056;27;19920;-82
2022/10/24 08:34:16;;;;;;;;;;;17.30;72.70;;;;;;5105850;28;19912;-82
2022/10/24 08:36:42;;;;;;;;;;;17.30;72.70;;;;;;5105634;27;20274;-82
2022/10/24 08:39:08;;;;;;;;;;;17.30;72.60;;;;;;5115133;27;19912;-82
2022/10/24 08:41:38;;;;;;;;;;;17.30;72.70;;;;;;5111502;28;19977;-82
2022/10/24 08:44:23;;;;;;;;;;;17.30;72.70;;;;;;5103286;28;19920;-81
2022/10/24 08:46:55;;;;;;;;;;;17.40;72.70;;;;;;5107759;27;19911;-82
2022/10/24 08:49:27;;;;;;;;;;;17.30;72.70;;;;;;5115161;27;19958;-81
2022/10/24 08:51:56;;;;;;;;;;;17.40;73.40;;;;;;5112066;27;19955;-82
2022/10/24 08:54:24;;;;;;;;;;;17.40;72.70;;;;;;5109412;28;19918;-82
2022/10/24 08:56:51;;;;;;;;;;;17.40;72.70;;;;;;5110453;27;19916;-82
2022/10/24 08:59:17;;;;;;;;;;;17.50;72.70;;;;;;5106016;27;19934;-81
2022/10/24 09:01:49;;;;;;;;;;;17.50;72.70;;;;;;5109654;27;19912;-83
2022/10/24 09:04:19;;;;;;;;;;;17.50;72.60;;;;;;5108899;27;19947;-83
2022/10/24 09:06:46;;;;;;;;;;;17.50;72.60;;;;;;5106810;28;19924;-81
2022/10/24 09:09:17;;;;;;;;;;;17.50;72.60;;;;;;5105053;28;19920;-82
2022/10/24 09:12:03;;;;;;;;;;;17.60;72.60;;;;;;5110373;27;19920;-82
2022/10/24 09:14:30;;;;;;;;;;;17.60;72.60;;;;;;5094438;28;19912;-83
2022/10/24 09:17:14;;;;;;;;;;;17.60;72.50;;;;;;5118687;27;19918;-82
2022/10/24 09:19:40;;;;;;;;;;;17.70;72.60;;;;;;5120841;27;19953;-82
2022/10/24 09:22:09;;;;;;;;;;;17.70;72.60;;;;;;5102800;28;19919;-82
2022/10/24 09:24:50;;;;;;;;;;;17.70;72.50;;;;;;5118255;27;19926;-82
2022/10/24 09:27:24;;;;;;;;;;;17.80;72.50;;;;;;5107990;27;19965;-83
2022/10/24 09:29:50;;;;;;;;;;;17.80;72.50;;;;;;5111152;27;19915;-83
2022/10/24 09:32:17;;;;;;;;;;;17.90;72.50;;;;;;5096327;28;19908;-82
2022/10/24 09:34:44;;;;;;;;;;;17.90;72.50;;;;;;5125385;27;19918;-82
2022/10/24 09:37:29;;;;;;;;;;;17.90;72.40;;;;;;5110724;28;19912;-82
2022/10/24 09:40:04;;;;;;;;;;;18.00;72.40;;;;;;5104356;27;20386;-83
2022/10/24 09:42:30;;;;;;;;;;;18.00;72.40;;;;;;5108655;28;19959;-82
2022/10/24 09:44:56;;;;;;;;;;;18.00;72.40;;;;;;5093315;28;19954;-83
2022/10/24 09:47:24;;;;;;;;;;;18.10;72.40;;;;;;5105359;27;19959;-83
2022/10/24 09:49:49;;;;;;;;;;;18.10;72.30;;;;;;5115027;27;19912;-83
2022/10/24 09:52:17;;;;;;;;;;;18.20;72.40;;;;;;5110095;27;20275;-83
2022/10/24 09:54:43;;;;;;;;;;;18.20;72.30;;;;;;5088292;27;19919;-84
2022/10/24 09:57:09;;;;;;;;;;;18.20;72.30;;;;;;5122380;27;19919;-83
2022/10/24 09:59:39;;;;;;;;;;;18.30;72.30;;;;;;5111156;28;19990;-83
2022/10/24 10:02:21;;;;;;;;;;;18.30;72.30;;;;;;5100758;27;20055;-82
2022/10/24 10:04:48;;;;;;;;;;;18.40;72.40;;;;;;5096809;28;20425;-82
2022/10/24 10:07:24;;;;;;;;;;;18.40;72.40;;;;;;5102546;27;19915;-83
2022/10/24 10:09:51;;;;;;;;;;;18.40;72.30;;;;;;5116277;27;19915;-83
2022/10/24 10:12:24;;;;;;;;;;;18.50;72.40;;;;;;5112853;28;19914;-83
2022/10/24 10:14:51;;;;;;;;;;;18.50;72.40;;;;;;5111306;27;19951;-83
2022/10/24 10:17:25;;;;;;;;;;;18.50;72.40;;;;;;5113161;27;20010;-83
2022/10/24 10:19:51;;;;;;;;;;;18.50;72.40;;;;;;5087868;28;19912;-83
2022/10/24 10:22:25;;;;;;;;;;;18.60;72.40;;;;;;5106505;27;19935;-83
2022/10/24 10:24:51;;;;;;;;;;;18.60;72.40;;;;;;5096262;28;20492;-83
2022/10/24 10:27:34;;;;;;;;;;;18.60;72.40;;;;;;5111092;27;19973;-83
2022/10/24 10:30:15;;;;;;;;;;;18.70;72.40;;;;;;5087343;28;19943;-80
2022/10/24 10:32:59;;;;;;;;;;;18.70;72.50;;;;;;5108985;27;19919;-86
2022/10/24 10:35:48;;;;;;;;;;;18.70;72.50;;;;;;5106499;28;19912;-83
2022/10/24 10:38:22;;;;;;;;;;;18.80;72.50;;;;;;5114366;28;19916;-82
2022/10/24 10:40:51;;;;;;;;;;;18.80;72.50;;;;;;5085118;28;19912;-83
2022/10/24 10:43:26;;;;;;;;;;;18.90;72.50;;;;;;5097447;28;19908;-86
2022/10/24 10:46:07;;;;;;;;;;;18.90;72.50;;;;;;5108976;28;19955;-85
2022/10/24 10:48:42;;;;;;;;;;;18.90;72.50;;;;;;5109503;28;19912;-81
2022/10/24 10:51:20;;;;;;;;;;;18.90;72.50;;;;;;5108468;28;20353;-83
2022/10/24 10:54:05;;;;;;;;;;;19.00;72.50;;;;;;5110128;28;19999;-83
2022/10/24 10:56:39;;;;;;;;;;;19.00;72.50;;;;;;5099196;28;19912;-83
2022/10/24 10:59:32;;;;;;;;;;;19.00;72.50;;;;;;5095238;27;19965;-83
2022/10/24 11:02:01;;;;;;;;;;;19.10;72.50;;;;;;5103733;28;20089;-82
2022/10/24 11:04:34;;;;;;;;;;;19.10;72.50;;;;;;5103203;27;20386;-83
2022/10/24 11:07:00;;;;;;;;;;;19.20;72.50;;;;;;5114209;28;19916;-83
2022/10/24 11:09:29;;;;;;;;;;;19.20;72.50;;;;;;5111105;27;20288;-82
2022/10/24 11:12:01;;;;;;;;;;;19.20;72.40;;;;;;5112390;28;19912;-83
2022/10/24 11:14:36;;;;;;;;;;;19.20;72.40;;;;;;5113958;27;20207;-84
2022/10/24 11:17:14;;;;;;;;;;;19.30;72.50;;;;;;5110215;27;19917;-83
2022/10/24 11:19:48;;;;;;;;;;;19.30;72.40;;;;;;5107287;27;19949;-84
2022/10/24 11:22:22;;;;;;;;;;;19.30;72.40;;;;;;5112543;28;19998;-83
2022/10/24 11:25:04;;;;;;;;;;;19.30;72.40;;;;;;5118858;27;19919;-82
2022/10/24 11:27:35;;;;;;;;;;;19.30;72.40;;;;;;5089572;28;19924;-84
2022/10/24 11:30:10;;;;;;;;;;;19.40;72.40;;;;;;5089207;28;20359;-83
2022/10/24 11:32:36;;;;;;;;;;;19.40;72.40;;;;;;5099517;27;19919;-82
2022/10/24 11:35:05;;;;;;;;;;;19.40;72.40;;;;;;5102130;28;20160;-82
2022/10/24 11:37:41;;;;;;;;;;;19.40;72.40;;;;;;5117514;27;19912;-82
2022/10/24 11:40:24;;;;;;;;;;;19.50;72.40;;;;;;5106796;28;19972;-83
2022/10/24 11:42:52;;;;;;;;;;;19.50;72.40;;;;;;5112247;28;20300;-82
2022/10/24 11:45:19;;;;;;;;;;;19.50;72.40;;;;;;5110343;28;20060;-83
2022/10/24 11:47:45;;;;;;;;;;;19.50;72.40;;;;;;5109672;28;20372;-83
2022/10/24 11:50:24;;;;;;;;;;;19.60;72.50;;;;;;5117224;27;19915;-82
2022/10/24 11:53:01;;;;;;;;;;;19.60;72.50;;;;;;5101665;27;20019;-82
2022/10/24 11:55:30;;;;;;;;;;;19.60;72.40;;;;;;5104455;28;19915;-84
2022/10/24 11:57:59;;;;;;;;;;;19.60;72.40;;;;;;5096177;28;19919;-84
2022/10/24 12:00:29;;;;;;;;;;;19.70;72.40;;;;;;5103100;28;19932;-85
2022/10/24 12:03:14;;;;;;;;;;;19.70;72.50;;;;;;5099425;28;19918;-86
2022/10/24 12:05:57;;;;;;;;;;;19.70;72.40;;;;;;5113203;28;19962;-84
2022/10/24 12:08:25;;;;;;;;;;;19.70;72.30;;;;;;5108665;28;19912;-84
2022/10/24 12:10:56;;;;;;;;;;;19.80;72.40;;;;;;5110514;28;19911;-83
2022/10/24 12:13:41;;;;;;;;;;;19.70;72.30;;;;;;5111827;28;19919;-85
2022/10/24 12:16:19;;;;;;;;;;;19.80;72.30;;;;;;5107273;28;20019;-84
2022/10/24 12:18:49;;;;;;;;;;;19.80;72.30;;;;;;5113612;27;19912;-84
2022/10/24 12:21:17;;;;;;;;;;;19.80;72.90;;;;;;5107525;28;19916;-87
2022/10/24 12:23:51;;;;;;;;;;;19.80;72.20;;;;;;5107157;27;19915;-85
2022/10/24 12:26:18;;;;;;;;;;;19.80;72.20;;;;;;5089241;28;19994;-85
2022/10/24 12:28:57;;;;;;;;;;;19.90;72.20;;;;;;5113806;28;19982;-85
2022/10/24 12:31:28;;;;;;;;;;;19.90;72.20;;;;;;5105797;27;19911;-84
2022/10/24 12:34:12;;;;;;;;;;;19.90;72.20;;;;;;5107012;27;19911;-84
2022/10/24 12:36:57;;;;;;;;;;;19.90;72.10;;;;;;5109681;27;19964;-84
2022/10/24 12:39:28;;;;;;;;;;;20.00;72.20;;;;;;5100602;28;19911;-85
2022/10/24 12:41:55;;;;;;;;;;;19.90;72.10;;;;;;5093508;28;19937;-83
2022/10/24 12:44:33;;;;;;;;;;;20.00;72.10;;;;;;5078878;28;19999;-83
2022/10/24 12:47:17;;;;;;;;;;;20.00;72.10;;;;;;5100190;27;19915;-84
2022/10/24 12:49:43;;;;;;;;;;;20.00;72.10;;;;;;5109772;27;19935;-84
2022/10/24 12:52:29;;;;;;;;;;;20.00;72.70;;;;;;5103679;28;19916;-83
2022/10/24 12:54:55;;;;;;;;;;;20.00;72.00;;;;;;5078144;28;19915;-83
2022/10/24 12:57:22;;;;;;;;;;;20.10;72.10;;;;;;5100145;27;19957;-83
2022/10/24 13:00:11;;;;;;;;;;;20.10;72.10;;;;;;5099067;27;19960;-83
2022/10/24 13:02:37;;;;;;;;;;;20.10;72.00;;;;;;5085914;28;19912;-84
2022/10/24 13:05:08;;;;;;;;;;;20.10;72.00;;;;;;5113917;27;19926;-83
2022/10/24 13:07:43;;;;;;;;;;;20.10;72.00;;;;;;5102098;27;19956;-84
2022/10/24 13:10:18;;;;;;;;;;;20.10;72.00;;;;;;5108509;28;20411;-84
2022/10/24 13:12:47;;;;;;;;;;;20.10;72.00;;;;;;5116224;27;19922;-82
2022/10/24 13:15:20;;;;;;;;;;;20.10;71.90;;;;;;5097178;27;19998;-83
2022/10/24 13:17:58;;;;;;;;;;;20.10;71.90;;;;;;5108065;28;20280;-83
2022/10/24 13:20:26;;;;;;;;;;;20.10;72.60;;;;;;5103822;27;19911;-84
2022/10/24 13:23:10;;;;;;;;;;;20.20;72.00;;;;;;5097668;28;19908;-83
2022/10/24 13:25:37;;;;;;;;;;;20.20;72.00;;;;;;5112162;28;19947;-83
2022/10/24 13:28:21;;;;;;;;;;;20.10;71.90;;;;;;5094925;27;19927;-85
2022/10/24 13:30:48;;;;;;;;;;;20.20;72.00;;;;;;5104972;27;19911;-86
2022/10/24 13:33:29;;;;;;;;;;;20.20;72.00;;;;;;5108432;28;19914;-82
2022/10/24 13:36:01;;;;;;;;;;;20.20;72.00;;;;;;5108139;28;19923;-82
2022/10/24 13:38:28;;;;;;;;;;;20.20;71.90;;;;;;5107683;28;20468;-82
2022/10/24 13:40:54;;;;;;;;;;;20.20;71.90;;;;;;5089163;28;19915;-82
2022/10/24 13:43:19;;;;;;;;;;;20.20;71.90;;;;;;5088150;28;20023;-83
2022/10/24 13:45:48;;;;;;;;;;;20.20;71.90;;;;;;5087386;28;19920;-83
2022/10/24 13:48:21;;;;;;;;;;;20.20;71.90;;;;;;5104906;28;19916;-83
2022/10/24 13:50:50;;;;;;;;;;;20.30;72.00;;;;;;5092820;28;19919;-84
2022/10/24 13:53:24;;;;;;;;;;;20.30;71.90;;;;;;5108417;28;19957;-84
2022/10/24 13:55:50;;;;;;;;;;;20.30;71.90;;;;;;5105062;28;19916;-81
2022/10/24 13:58:20;;;;;;;;;;;20.20;71.80;;;;;;5090582;28;19920;-82
2022/10/24 14:00:57;;;;;;;;;;;20.20;71.90;;;;;;5102125;28;20007;-82
2022/10/24 14:03:24;;;;;;;;;;;20.30;71.90;;;;;;5106772;28;19919;-82
2022/10/24 14:05:50;;;;;;;;;;;20.30;71.90;;;;;;5087330;28;19950;-82
2022/10/24 14:08:27;;;;;;;;;;;20.30;71.80;;;;;;5104162;28;19951;-82
2022/10/24 14:10:53;;;;;;;;;;;20.30;71.90;;;;;;5104560;27;19912;-82
2022/10/24 14:13:20;;;;;;;;;;;20.30;71.80;;;;;;5090324;28;20275;-83
2022/10/24 14:15:50;;;;;;;;;;;20.30;71.80;;;;;;5085149;28;19924;-83
2022/10/24 14:18:17;;;;;;;;;;;20.30;71.80;;;;;;5106895;28;20360;-84
2022/10/24 14:20:49;;;;;;;;;;;20.30;71.80;;;;;;5103642;28;20268;-84
2022/10/24 14:23:30;;;;;;;;;;;20.30;71.80;;;;;;5109426;28;19908;-83
2022/10/24 14:26:05;;;;;;;;;;;20.30;71.80;;;;;;5106988;28;19927;-82